createdAt,value
2022-11-30T00:02:08.884Z,103820.69
2022-11-30T00:04:36.173Z,103829.34
2022-11-30T00:07:03.499Z,103836.47
2022-11-30T00:09:32.099Z,103840.41
2022-11-30T00:11:59.350Z,103841.81
2022-11-30T00:14:26.618Z,103843.50
2022-11-30T00:16:53.822Z,103844.31
2022-11-30T00:19:21.126Z,103842.19
2022-11-30T00:21:48.353Z,103848.22
2022-11-30T00:24:15.586Z,103851.47
2022-11-30T00:26:44.200Z,103860.91
2022-11-30T00:29:11.451Z,103857.31
2022-11-30T00:31:38.744Z,103860.91
2022-11-30T00:34:05.911Z,103868.44
2022-11-30T00:36:33.424Z,103868.56
2022-11-30T00:39:00.653Z,103879.97
2022-11-30T00:41:27.993Z,103884.34
2022-11-30T00:43:56.557Z,103887.31
2022-11-30T00:46:23.845Z,103888.13
2022-11-30T00:48:51.052Z,103878.66
2022-11-30T00:51:18.360Z,103888.28
2022-11-30T00:53:45.806Z,103887.78
2022-11-30T00:56:13.770Z,103884.34
2022-11-30T00:58:41.081Z,103882.59
2022-11-30T01:01:09.858Z,103882.44
2022-11-30T01:03:37.375Z,103880.78
2022-11-30T01:06:06.880Z,103885.69
2022-11-30T01:08:34.998Z,103888.47
2022-11-30T01:11:07.347Z,103902.28
2022-11-30T01:13:34.632Z,103904.56
2022-11-30T01:16:01.907Z,103907.00
2022-11-30T01:18:30.532Z,103907.16
2022-11-30T01:20:57.681Z,103904.56
2022-11-30T01:23:24.938Z,103913.34
2022-11-30T01:25:55.633Z,103915.13
2022-11-30T01:28:22.992Z,103908.94
2022-11-30T01:30:56.885Z,103917.41
2022-11-30T01:33:24.153Z,103905.53
2022-11-30T01:36:00.266Z,103910.72
2022-11-30T01:38:27.754Z,103910.25
2022-11-30T01:40:54.979Z,103916.75
2022-11-30T01:43:22.274Z,103914.16
2022-11-30T01:45:49.792Z,103913.03
2022-11-30T01:48:17.053Z,103913.81
2022-11-30T01:50:45.080Z,103921.34
2022-11-30T01:53:14.050Z,103916.09
2022-11-30T01:55:46.228Z,103924.41
2022-11-30T01:58:16.419Z,103922.94
2022-11-30T02:00:47.349Z,103924.88
2022-11-30T02:03:21.482Z,103924.09
2022-11-30T02:05:49.060Z,103932.41
2022-11-30T02:08:19.087Z,103935.78
2022-11-30T02:10:52.506Z,103935.47
2022-11-30T02:13:44.645Z,103940.03
2022-11-30T02:16:21.107Z,103935.78
2022-11-30T02:18:57.743Z,103947.34
2022-11-30T02:21:28.762Z,103941.81
2022-11-30T02:24:20.694Z,103950.09
2022-11-30T02:27:18.126Z,103945.41
2022-11-30T02:29:53.504Z,103946.84
2022-11-30T02:32:26.089Z,103956.47
2022-11-30T02:34:56.742Z,103965.09
2022-11-30T02:37:25.674Z,103967.03
2022-11-30T02:39:52.910Z,103967.53
2022-11-30T02:42:20.188Z,103967.53
2022-11-30T02:44:51.563Z,103968.34
2022-11-30T02:47:23.569Z,103974.50
2022-11-30T02:49:56.239Z,103971.75
2022-11-30T02:52:26.241Z,103974.00
2022-11-30T02:54:54.062Z,103974.50
2022-11-30T02:57:21.350Z,103982.78
2022-11-30T02:59:50.157Z,103976.66
2022-11-30T03:02:17.442Z,103982.19
2022-11-30T03:04:45.065Z,103991.25
2022-11-30T03:07:12.550Z,103990.78
2022-11-30T03:09:39.807Z,103986.88
2022-11-30T03:12:07.199Z,103989.16
2022-11-30T03:14:34.476Z,103991.09
2022-11-30T03:17:03.091Z,104002.81
2022-11-30T03:19:30.329Z,104000.38
2022-11-30T03:21:57.604Z,104003.78
2022-11-30T03:24:24.877Z,104014.53
2022-11-30T03:26:52.267Z,104013.88
2022-11-30T03:29:19.504Z,104016.16
2022-11-30T03:31:46.773Z,104016.16
2022-11-30T03:34:15.274Z,104018.75
2022-11-30T03:36:42.545Z,104015.50
2022-11-30T03:39:10.105Z,104009.81
2022-11-30T03:41:37.370Z,104017.63
2022-11-30T03:44:04.590Z,104022.81
2022-11-30T03:46:34.034Z,104024.28
2022-11-30T03:49:01.341Z,104025.44
2022-11-30T03:51:29.986Z,104027.69
2022-11-30T03:53:57.230Z,104049.81
2022-11-30T03:56:24.941Z,104044.28
2022-11-30T03:58:52.258Z,104034.38
2022-11-30T04:01:21.516Z,104041.84
2022-11-30T04:03:49.166Z,104041.84
2022-11-30T04:06:17.381Z,104048.84
2022-11-30T04:08:46.047Z,104049.66
2022-11-30T04:11:13.968Z,104056.66
2022-11-30T04:13:42.069Z,104060.53
2022-11-30T04:16:10.230Z,104059.25
2022-11-30T04:18:38.493Z,104056.84
2022-11-30T04:21:06.974Z,104063.66
2022-11-30T04:23:36.942Z,104058.94
2022-11-30T04:26:07.001Z,104063.00
2022-11-30T04:28:34.296Z,104062.19
2022-11-30T04:31:01.913Z,104059.09
2022-11-30T04:33:29.264Z,104057.94
2022-11-30T04:35:58.393Z,104047.72
2022-11-30T04:38:26.530Z,104057.63
2022-11-30T04:40:54.302Z,104062.66
2022-11-30T04:43:23.260Z,104049.81
2022-11-30T04:45:50.569Z,104060.88
2022-11-30T04:48:18.775Z,104063.81
2022-11-30T04:50:46.044Z,104062.66
2022-11-30T04:53:13.304Z,104074.88
2022-11-30T04:55:40.787Z,104060.38
2022-11-30T04:58:09.298Z,104081.38
2022-11-30T05:00:38.089Z,104085.75
2022-11-30T05:03:05.263Z,104078.28
2022-11-30T05:05:32.538Z,104084.78
2022-11-30T05:08:01.177Z,104073.25
2022-11-30T05:10:29.038Z,104076.97
2022-11-30T05:12:56.975Z,104074.53
2022-11-30T05:15:24.672Z,104080.22
2022-11-30T05:17:53.281Z,104069.34
2022-11-30T05:20:20.624Z,104074.88
2022-11-30T05:22:48.820Z,104066.91
2022-11-30T05:25:16.270Z,104067.41
2022-11-30T05:27:43.579Z,104061.88
2022-11-30T05:30:12.253Z,104067.84
2022-11-30T05:32:39.845Z,104062.31
2022-11-30T05:35:09.460Z,104067.56
2022-11-30T05:37:36.868Z,104072.44
2022-11-30T05:40:05.362Z,104071.78
2022-11-30T05:42:32.555Z,104067.41
2022-11-30T05:44:59.775Z,104075.84
2022-11-30T05:47:26.977Z,104080.56
2022-11-30T05:49:54.329Z,104072.75
2022-11-30T05:52:22.866Z,104079.91
2022-11-30T05:54:50.293Z,104071.13
2022-11-30T05:57:17.604Z,104067.06
2022-11-30T05:59:45.103Z,104081.22
2022-11-30T06:02:12.324Z,104070.16
2022-11-30T06:04:39.649Z,104064.47
2022-11-30T06:07:06.888Z,104076.81
2022-11-30T06:09:35.517Z,104075.03
2022-11-30T06:12:02.838Z,104075.03
2022-11-30T06:14:30.059Z,104082.16
2022-11-30T06:16:57.437Z,104071.13
2022-11-30T06:19:24.690Z,104082.84
2022-11-30T06:21:51.882Z,104083.00
2022-11-30T06:24:19.066Z,104084.94
2022-11-30T06:26:47.698Z,104081.22
2022-11-30T06:29:15.025Z,104072.44
2022-11-30T06:31:42.369Z,104087.22
2022-11-30T06:34:09.848Z,104087.69
2022-11-30T06:36:37.072Z,104093.72
2022-11-30T06:39:04.546Z,104093.56
2022-11-30T06:41:31.911Z,104093.22
2022-11-30T06:44:00.644Z,104090.13
2022-11-30T06:46:27.895Z,104080.72
2022-11-30T06:48:55.328Z,104090.63
2022-11-30T06:51:22.555Z,104091.13
2022-11-30T06:53:49.907Z,104094.72
2022-11-30T06:56:17.222Z,104097.47
2022-11-30T06:58:44.656Z,104089.69
2022-11-30T07:01:14.746Z,104093.41
2022-11-30T07:03:42.462Z,104096.50
2022-11-30T07:06:11.975Z,104091.63
2022-11-30T07:08:40.177Z,104091.63
2022-11-30T07:11:08.745Z,104084.44
2022-11-30T07:13:36.767Z,104086.75
2022-11-30T07:16:04.721Z,104087.38
2022-11-30T07:18:33.916Z,104083.16
2022-11-30T07:21:01.918Z,104085.94
2022-11-30T07:23:29.488Z,104084.00
2022-11-30T07:26:01.517Z,104090.81
2022-11-30T07:28:28.802Z,104107.56
2022-11-30T07:30:55.965Z,104096.50
2022-11-30T07:33:23.249Z,104102.34
2022-11-30T07:35:52.654Z,104109.50
2022-11-30T07:38:20.047Z,104112.25
2022-11-30T07:40:47.234Z,104101.84
2022-11-30T07:43:14.414Z,104109.81
2022-11-30T07:45:41.792Z,104108.38
2022-11-30T07:48:09.114Z,104103.66
2022-11-30T07:50:36.322Z,104109.31
2022-11-30T07:53:04.930Z,104114.56
2022-11-30T07:55:32.150Z,104120.25
2022-11-30T07:57:59.432Z,104117.50
2022-11-30T08:00:26.658Z,104123.31
2022-11-30T08:02:54.070Z,104136.53
2022-11-30T08:05:21.209Z,104126.09
2022-11-30T08:07:51.365Z,104117.78
2022-11-30T08:10:21.203Z,104125.94
2022-11-30T08:12:49.056Z,104124.47
2022-11-30T08:15:21.276Z,104133.44
2022-11-30T08:17:49.662Z,104126.75
2022-11-30T08:20:17.030Z,104140.56
2022-11-30T08:22:44.366Z,104126.25
2022-11-30T08:25:11.620Z,104137.47
2022-11-30T08:27:40.335Z,104128.84
2022-11-30T08:30:08.984Z,104131.63
2022-11-30T08:32:36.378Z,104133.59
2022-11-30T08:35:04.088Z,104144.00
2022-11-30T08:37:31.305Z,104142.06
2022-11-30T08:39:58.536Z,104141.41
2022-11-30T08:42:25.862Z,104142.22
2022-11-30T08:44:54.402Z,104140.75
2022-11-30T08:47:21.855Z,104141.56
2022-11-30T08:49:49.105Z,104147.94
2022-11-30T08:52:17.956Z,104147.25
2022-11-30T08:54:47.590Z,104147.09
2022-11-30T08:57:15.914Z,104145.66
2022-11-30T08:59:43.177Z,104145.00
2022-11-30T09:02:13.526Z,104150.84
2022-11-30T09:04:40.863Z,104154.75
2022-11-30T09:07:10.055Z,104149.22
2022-11-30T09:09:37.466Z,104155.41
2022-11-30T09:12:05.356Z,104161.09
2022-11-30T09:14:32.705Z,104157.34
2022-11-30T09:17:00.065Z,104150.53
2022-11-30T09:19:28.790Z,104148.09
2022-11-30T09:21:56.052Z,104151.19
2022-11-30T09:24:23.403Z,104143.34
2022-11-30T09:26:50.680Z,104144.34
2022-11-30T09:29:17.954Z,104139.47
2022-11-30T09:31:45.169Z,104130.69
2022-11-30T09:34:12.476Z,104123.53
2022-11-30T09:36:41.078Z,104113.41
2022-11-30T09:39:09.694Z,104116.84
2022-11-30T09:42:13.707Z,104099.72
2022-11-30T09:44:51.025Z,104091.59
2022-11-30T09:47:44.024Z,104075.50
2022-11-30T09:50:14.854Z,104066.22
2022-11-30T09:52:46.799Z,104055.13
2022-11-30T09:55:22.320Z,104051.56
2022-11-30T09:57:54.027Z,104035.28
2022-11-30T10:00:23.836Z,104015.09
2022-11-30T10:02:53.163Z,103997.34
2022-11-30T10:05:22.956Z,103993.78
2022-11-30T10:08:05.750Z,103971.66
2022-11-30T10:10:39.757Z,103946.41
2022-11-30T10:13:22.564Z,103926.56
2022-11-30T10:16:05.306Z,103904.44
2022-11-30T10:18:47.241Z,103881.13
2022-11-30T10:21:28.322Z,103858.53
2022-11-30T10:24:06.594Z,103827.44
2022-11-30T10:26:35.957Z,103808.34
2022-11-30T10:29:14.222Z,103787.81
2022-11-30T10:31:43.186Z,103762.56
2022-11-30T10:34:20.032Z,103733.44
2022-11-30T10:36:53.241Z,103703.34
2022-11-30T10:39:28.744Z,103676.13
2022-11-30T10:42:04.039Z,103649.94
2022-11-30T10:44:34.301Z,103625.03
2022-11-30T10:47:06.795Z,103610.84
2022-11-30T10:49:36.714Z,103574.88
2022-11-30T10:52:08.377Z,103538.91
2022-11-30T10:54:37.065Z,103503.97
2022-11-30T10:57:07.163Z,103475.81
2022-11-30T10:59:42.447Z,103451.88
2022-11-30T11:02:36.854Z,103424.50
2022-11-30T11:05:19.725Z,103401.34
2022-11-30T11:07:54.813Z,103375.41
2022-11-30T11:10:28.571Z,103355.91
2022-11-30T11:12:56.797Z,103330.66
2022-11-30T11:15:25.795Z,103309.69
2022-11-30T11:17:54.314Z,103279.72
2022-11-30T11:20:34.313Z,103243.88
2022-11-30T11:23:02.757Z,103224.63
2022-11-30T11:25:36.084Z,103200.72
2022-11-30T11:28:07.163Z,103173.97
2022-11-30T11:30:35.806Z,103151.38
2022-11-30T11:33:07.488Z,103116.22
2022-11-30T11:35:37.540Z,103083.94
2022-11-30T11:38:18.747Z,103055.19
2022-11-30T11:40:54.754Z,103034.03
2022-11-30T11:43:24.225Z,103018.03
2022-11-30T11:45:54.377Z,102991.94
2022-11-30T11:48:31.969Z,102978.75
2022-11-30T11:51:08.726Z,102960.81
2022-11-30T11:53:56.076Z,102933.22
2022-11-30T11:56:27.074Z,102908.59
2022-11-30T11:59:00.509Z,102877.78
2022-11-30T12:01:42.574Z,102838.50
2022-11-30T12:04:22.173Z,102818.44
2022-11-30T12:06:53.265Z,102802.06
2022-11-30T12:09:25.208Z,102800.84
2022-11-30T12:11:53.897Z,102797.34
2022-11-30T12:14:21.122Z,102801.81
2022-11-30T12:17:03.766Z,102796.28
2022-11-30T12:19:39.517Z,102777.78
2022-11-30T12:22:22.011Z,102768.53
2022-11-30T12:25:18.149Z,102752.06
2022-11-30T12:27:56.262Z,102743.41
2022-11-30T12:30:27.951Z,102723.00
2022-11-30T12:33:10.337Z,102705.59
2022-11-30T12:35:46.821Z,102678.50
2022-11-30T12:38:26.055Z,102654.63
2022-11-30T12:41:04.369Z,102638.31
2022-11-30T12:43:47.053Z,102616.56
2022-11-30T12:46:22.863Z,102602.16
2022-11-30T12:49:08.419Z,102597.47
2022-11-30T12:51:42.608Z,102584.28
2022-11-30T12:54:18.126Z,102571.19
2022-11-30T12:56:53.860Z,102552.25
2022-11-30T12:59:30.206Z,102552.00
2022-11-30T13:02:20.912Z,102528.44
2022-11-30T13:04:58.033Z,102514.28
2022-11-30T13:07:31.528Z,102500.75
2022-11-30T13:10:04.420Z,102501.13
2022-11-30T13:12:34.743Z,102499.09
2022-11-30T13:15:08.681Z,102491.50
2022-11-30T13:17:38.361Z,102480.06
2022-11-30T13:20:14.829Z,102477.53
2022-11-30T13:22:53.571Z,102468.84
2022-11-30T13:26:05.721Z,102460.00
2022-11-30T13:28:25.487Z,102454.88
2022-11-30T13:30:59.728Z,102445.47
2022-11-30T13:33:59.953Z,102431.13
2022-11-30T13:36:35.975Z,102415.28
2022-11-30T13:39:24.733Z,102415.28
2022-11-30T13:42:26.165Z,102399.75
2022-11-30T13:44:53.963Z,102392.25
2022-11-30T13:47:30.559Z,102397.78
2022-11-30T13:50:00.796Z,102383.94
2022-11-30T13:53:06.950Z,102380.03
2022-11-30T13:55:50.244Z,102363.13
2022-11-30T13:58:19.020Z,102359.81
2022-11-30T14:01:00.200Z,102356.66
2022-11-30T14:03:29.926Z,102347.91
2022-11-30T14:05:58.656Z,102351.88
2022-11-30T14:08:36.008Z,102350.25
2022-11-30T14:11:41.057Z,102343.53
2022-11-30T14:14:46.805Z,102328.88
2022-11-30T14:17:17.907Z,102327.75
2022-11-30T14:19:49.899Z,102333.81
2022-11-30T14:22:18.257Z,102329.69
2022-11-30T14:24:48.488Z,102330.13
2022-11-30T14:27:19.990Z,102326.19
2022-11-30T14:29:50.499Z,102332.13
2022-11-30T14:32:23.812Z,102323.47
2022-11-30T14:35:00.946Z,102321.81
2022-11-30T14:37:32.162Z,102314.66
2022-11-30T14:40:02.417Z,102320.53
2022-11-30T14:42:31.232Z,102328.06
2022-11-30T14:44:58.774Z,102329.25
2022-11-30T14:47:27.981Z,102332.03
2022-11-30T14:49:58.425Z,102331.19
2022-11-30T14:52:45.375Z,102326.50
2022-11-30T14:55:22.844Z,102345.44
2022-11-30T14:58:02.555Z,102345.31
2022-11-30T15:00:37.573Z,102346.63
2022-11-30T15:03:06.008Z,102352.09
2022-11-30T15:05:34.875Z,102369.13
2022-11-30T15:08:02.258Z,102364.19
2022-11-30T15:10:32.733Z,102374.94
2022-11-30T15:13:01.639Z,102389.59
2022-11-30T15:15:29.520Z,102383.19
2022-11-30T15:17:58.811Z,102389.59
2022-11-30T15:20:31.115Z,102397.41
2022-11-30T15:23:00.607Z,102405.19
2022-11-30T15:25:39.006Z,102409.59
2022-11-30T15:28:07.385Z,102416.31
2022-11-30T15:30:38.087Z,102425.06
2022-11-30T15:33:05.355Z,102429.84
2022-11-30T15:35:50.347Z,102445.78
2022-11-30T15:38:24.283Z,102442.56
2022-11-30T15:40:54.437Z,102444.06
2022-11-30T15:43:24.490Z,102452.72
2022-11-30T15:45:54.523Z,102464.69
2022-11-30T15:48:29.232Z,102463.91
2022-11-30T15:50:56.877Z,102467.63
2022-11-30T15:53:31.286Z,102480.19
2022-11-30T15:56:00.409Z,102489.69
2022-11-30T15:58:36.024Z,102503.16
2022-11-30T16:01:09.733Z,102519.75
2022-11-30T16:04:01.716Z,102530.13
2022-11-30T16:06:31.106Z,102535.22
2022-11-30T16:09:04.702Z,102539.56
2022-11-30T16:11:33.565Z,102550.63
2022-11-30T16:14:00.728Z,102546.56
2022-11-30T16:16:31.788Z,102545.81
2022-11-30T16:18:59.288Z,102556.00
2022-11-30T16:21:26.642Z,102569.91
2022-11-30T16:23:53.989Z,102574.66
2022-11-30T16:26:43.630Z,102585.28
2022-11-30T16:29:09.901Z,102589.13
2022-11-30T16:31:37.260Z,102600.19
2022-11-30T16:34:04.863Z,102612.06
2022-11-30T16:36:32.012Z,102614.47
2022-11-30T16:38:59.258Z,102621.53
2022-11-30T16:41:27.796Z,102627.06
2022-11-30T16:43:56.731Z,102637.25
2022-11-30T16:46:26.308Z,102649.28
2022-11-30T16:48:54.081Z,102656.75
2022-11-30T16:51:24.583Z,102657.13
2022-11-30T16:53:51.956Z,102669.34
2022-11-30T16:56:19.294Z,102673.66
2022-11-30T16:58:48.148Z,102677.63
2022-11-30T17:01:18.853Z,102683.09
2022-11-30T17:03:49.352Z,102683.09
2022-11-30T17:06:19.549Z,102691.75
2022-11-30T17:08:47.943Z,102698.25
2022-11-30T17:11:18.931Z,102707.56
2022-11-30T17:13:46.243Z,102708.50
2022-11-30T17:16:14.906Z,102702.13
2022-11-30T17:18:42.204Z,102701.59
2022-11-30T17:21:14.282Z,102705.78
2022-11-30T17:23:41.907Z,102722.09
2022-11-30T17:26:09.341Z,102736.00
2022-11-30T17:28:36.789Z,102745.56
2022-11-30T17:31:04.419Z,102748.69
2022-11-30T17:33:34.318Z,102749.56
2022-11-30T17:36:03.608Z,102755.91
2022-11-30T17:38:31.579Z,102758.22
2022-11-30T17:40:58.777Z,102753.41
2022-11-30T17:43:26.172Z,102757.75
2022-11-30T17:45:53.366Z,102756.25
2022-11-30T17:48:20.651Z,102752.31
2022-11-30T17:50:51.770Z,102756.63
2022-11-30T17:53:19.148Z,102753.13
2022-11-30T17:55:46.349Z,102751.25
2022-11-30T17:58:13.634Z,102749.63
2022-11-30T18:00:40.959Z,102741.63
2022-11-30T18:03:08.116Z,102737.72
2022-11-30T18:05:35.790Z,102729.78
2022-11-30T18:08:04.803Z,102733.78
2022-11-30T18:10:32.031Z,102718.06
2022-11-30T18:12:59.230Z,102717.16
2022-11-30T18:15:26.446Z,102702.19
2022-11-30T18:17:53.732Z,102690.97
2022-11-30T18:20:20.916Z,102683.81
2022-11-30T18:22:48.106Z,102683.09
2022-11-30T18:25:16.722Z,102666.50
2022-11-30T18:27:44.083Z,102653.84
2022-11-30T18:30:12.181Z,102646.06
2022-11-30T18:32:39.468Z,102634.94
2022-11-30T18:35:07.379Z,102630.28
2022-11-30T18:37:34.606Z,102621.53
2022-11-30T18:40:02.546Z,102618.41
2022-11-30T18:42:33.627Z,102607.34
2022-11-30T18:45:00.949Z,102596.28
2022-11-30T18:47:28.109Z,102596.72
2022-11-30T18:49:55.357Z,102587.47
2022-11-30T18:52:22.622Z,102583.13
2022-11-30T18:54:50.206Z,102585.00
2022-11-30T18:57:17.647Z,102578.72
2022-11-30T18:59:48.722Z,102574.81
2022-11-30T19:02:18.451Z,102567.66
2022-11-30T19:04:45.747Z,102564.91
2022-11-30T19:07:13.243Z,102554.13
2022-11-30T19:09:40.446Z,102534.47
2022-11-30T19:12:07.687Z,102525.19
2022-11-30T19:14:34.873Z,102517.25
2022-11-30T19:17:03.487Z,102522.97
2022-11-30T19:19:30.778Z,102511.06
2022-11-30T19:21:58.042Z,102512.53
2022-11-30T19:24:25.419Z,102501.97
2022-11-30T19:26:52.690Z,102500.44
2022-11-30T19:29:20.069Z,102498.97
2022-11-30T19:31:47.388Z,102490.84
2022-11-30T19:34:15.925Z,102482.97
2022-11-30T19:36:43.182Z,102476.34
2022-11-30T19:39:10.771Z,102467.69
2022-11-30T19:41:38.073Z,102451.47
2022-11-30T19:44:05.234Z,102451.38
2022-11-30T19:46:33.187Z,102433.59
2022-11-30T19:49:01.892Z,102432.34
2022-11-30T19:51:31.634Z,102417.38
2022-11-30T19:53:59.192Z,102410.22
2022-11-30T19:56:28.248Z,102397.22
2022-11-30T19:58:59.959Z,102387.16
2022-11-30T20:01:31.885Z,102384.91
2022-11-30T20:03:59.188Z,102379.75
2022-11-30T20:06:28.677Z,102370.72
2022-11-30T20:08:57.238Z,102353.34
2022-11-30T20:11:24.481Z,102354.94
2022-11-30T20:13:51.861Z,102341.03
2022-11-30T20:16:20.760Z,102323.97
2022-11-30T20:18:54.780Z,102310.50
2022-11-30T20:21:23.742Z,102287.66
2022-11-30T20:23:52.295Z,102276.50
2022-11-30T20:26:23.020Z,102259.97
2022-11-30T20:28:51.413Z,102259.13
2022-11-30T20:31:20.869Z,102246.56
2022-11-30T20:33:48.628Z,102231.59
2022-11-30T20:36:17.070Z,102228.81
2022-11-30T20:38:44.373Z,102223.66
2022-11-30T20:41:14.452Z,102231.59
2022-11-30T20:43:43.492Z,102219.78
2022-11-30T20:46:15.806Z,102213.38
2022-11-30T20:48:43.244Z,102210.34
2022-11-30T20:51:30.249Z,102208.66
2022-11-30T20:53:59.533Z,102203.19
2022-11-30T20:56:26.745Z,102203.94
2022-11-30T20:58:55.537Z,102201.19
2022-11-30T21:01:22.992Z,102204.00
2022-11-30T21:03:50.340Z,102200.81
2022-11-30T21:06:17.518Z,102198.41
2022-11-30T21:08:45.024Z,102207.84
2022-11-30T21:11:14.288Z,102217.34
2022-11-30T21:13:44.019Z,102217.66
2022-11-30T21:16:13.684Z,102230.72
2022-11-30T21:18:43.078Z,102237.75
2022-11-30T21:21:13.056Z,102251.56
2022-11-30T21:23:40.408Z,102264.75
2022-11-30T21:26:14.184Z,102279.31
2022-11-30T21:28:41.697Z,102282.50
2022-11-30T21:31:08.968Z,102297.81
2022-11-30T21:33:37.709Z,102304.59
2022-11-30T21:36:06.029Z,102307.25
2022-11-30T21:38:33.775Z,102324.75
2022-11-30T21:41:01.799Z,102336.69
2022-11-30T21:43:30.642Z,102353.22
2022-11-30T21:45:59.638Z,102355.59
2022-11-30T21:48:29.364Z,102363.47
2022-11-30T21:50:59.040Z,102363.41
2022-11-30T21:53:27.331Z,102373.72
2022-11-30T21:55:55.971Z,102367.34
2022-11-30T21:58:23.394Z,102378.41
2022-11-30T22:00:57.265Z,102381.63
2022-11-30T22:03:24.726Z,102386.25
2022-11-30T22:06:02.462Z,102393.50
2022-11-30T22:08:30.460Z,102389.91
2022-11-30T22:11:00.311Z,102396.63
2022-11-30T22:13:27.865Z,102393.75
2022-11-30T22:15:58.980Z,102392.22
2022-11-30T22:18:26.451Z,102395.84
2022-11-30T22:20:53.861Z,102398.91
2022-11-30T22:23:22.468Z,102396.44
2022-11-30T22:25:49.754Z,102403.59
2022-11-30T22:28:17.122Z,102404.44
2022-11-30T22:30:44.463Z,102408.31
2022-11-30T22:33:11.762Z,102420.22
2022-11-30T22:35:39.028Z,102423.41
2022-11-30T22:38:06.288Z,102431.00
2022-11-30T22:40:34.906Z,102437.59
2022-11-30T22:43:02.564Z,102440.22
2022-11-30T22:45:33.234Z,102443.88
2022-11-30T22:48:00.478Z,102457.69
2022-11-30T22:50:27.876Z,102470.00
2022-11-30T22:53:02.850Z,102482.56
2022-11-30T22:55:31.742Z,102485.19
2022-11-30T22:58:00.481Z,102499.00
2022-11-30T23:00:27.846Z,102501.03
2022-11-30T23:02:55.246Z,102511.22
2022-11-30T23:05:22.572Z,102506.84
2022-11-30T23:07:49.792Z,102513.19
2022-11-30T23:10:17.108Z,102518.84
2022-11-30T23:12:59.109Z,102523.59
2022-11-30T23:15:28.693Z,102522.91
2022-11-30T23:17:55.883Z,102528.66
2022-11-30T23:20:23.128Z,102525.91
2022-11-30T23:22:50.365Z,102520.38
2022-11-30T23:25:17.676Z,102525.13
2022-11-30T23:27:44.950Z,102516.91
2022-11-30T23:30:12.526Z,102514.84
2022-11-30T23:32:41.030Z,102505.41
2022-11-30T23:35:09.294Z,102496.75
2022-11-30T23:37:36.511Z,102488.09
2022-11-30T23:40:04.532Z,102475.22
2022-11-30T23:42:31.761Z,102472.91
2022-11-30T23:44:59.084Z,102467.31
2022-11-30T23:47:26.366Z,102468.09
2022-11-30T23:49:55.003Z,102476.75
2022-11-30T23:52:22.193Z,102481.53
2022-11-30T23:54:49.567Z,102479.22
2022-11-30T23:57:16.748Z,102486.28
2022-11-30T23:59:44.139Z,102495.00
